メインページ
METAR-TAF:

METAR-TAF

空港 :

アルハンゲリスク, ロシア

緯度: 64-30N, 経度: 040-44E, 海抜: 13m

現時点の気象観測

当レポートは28分前の03:30(UTC)に作成
南/南西の風 4kt、から西/南西の間で変化する
気温 -2°C
湿度 80%
気圧 1008 hPa
視程10km以上
高度2100ftの曇り

METAR: ULAA 130330Z 21002MPS 170V250 9999 OVC021 M02/M05 Q1008 R26/490245 NOSIG RMK QFE755/1006

時間: 06:58 (03:58 UTC)

予報

当レポートは1時間58分前の02:00(UTC)に作成
予報は13日の 03時(UTC)から 14日の 03時(UTC)まで有効
南西の風 8kt
視程10km以上
高度1200ftの千切れ雲あり
13日の 03時(UTC)から 13日の 06時(UTC)まで一時的に
視程: 3100m
高度1100ftの千切れ雲あり
小雪
13日の 06時(UTC)から 13日の 10時(UTC)まで一時的に
南/南西の風 8kt、最大17ktの突風を伴う
視程: 2100m
高度600ftの千切れ雲あり
高度1100ftの千切れ雲あり
小雪, 靄
13日の 1000時(UTC)から
南/南西の風 8kt
視程: 6000m
高度1100ftの千切れ雲あり
小雪
13日の 10時(UTC)から 13日の 24時(UTC)まで一時的に
の風 8kt、最大17ktの突風を伴う
視程: 3100m
高度700ftの千切れ雲あり
高度1000ftの千切れ雲あり, 積乱雲.
(弱い) 着氷性, 霧雨, 弱いにわか雪
14日の 00時(UTC)から 14日の 03時(UTC)まで一時的に
視程: 3100m
高度600ftの千切れ雲あり
高度1100ftの千切れ雲あり, 積乱雲.
弱いにわか雪, 雨, 靄

TAF: ULAA 130200Z 1303/1403 22004MPS 9999 BKN012 TEMPO 1303/1306 3100 -SN BKN011 TEMPO 1306/1310 20004G09MPS 2100 -SN BR BKN006 BKN011 FM131000 20004MPS 6000 -SN BKN011 TEMPO 1310/1324 19004G09MPS 3100 -FZDZ -SHSN BKN007 BKN010CB TEMPO 1400/1403 3100 -SHSNRA BR BKN006 BKN011CB

4,000以上の空港の気象観測と天気予報(METAR報とTAF報)

利用可能な観測所は地図上に黄色い丸と赤い丸で示す。

丸の上にカーソルを重ねると観測所名を参照できる。

次にクリックすると気象観測と天気予報を参照できる。

マップの切り替え:黒色「×」印の緑ボタンをクリックして拡大、「-」印の緑ボタンをクリックして縮小、緑色の三角印をクリックして隣りの地図に切り替え


METAR-TAF: